sensor_id;sensor_type;location;lat;lon;timestamp;pressure;altitude;pressure_sealevel;temperature;humidity
21633;BME280;48765;51.568;8.840;2022-07-25T00:01:33;98248.88;;;19.31;100.00
21633;BME280;48765;51.568;8.840;2022-07-25T00:04:00;98244.66;;;19.65;100.00
21633;BME280;48765;51.568;8.840;2022-07-25T00:06:29;98246.88;;;19.55;100.00
21633;BME280;48765;51.568;8.840;2022-07-25T00:08:56;98231.66;;;19.75;99.11
21633;BME280;48765;51.568;8.840;2022-07-25T00:11:23;98234.94;;;20.00;94.35
21633;BME280;48765;51.568;8.840;2022-07-25T00:13:49;98224.16;;;20.19;92.01
21633;BME280;48765;51.568;8.840;2022-07-25T00:16:16;98223.13;;;20.22;91.52
21633;BME280;48765;51.568;8.840;2022-07-25T00:18:43;98221.72;;;20.32;89.61
21633;BME280;48765;51.568;8.840;2022-07-25T00:21:10;98222.13;;;20.41;87.86
21633;BME280;48765;51.568;8.840;2022-07-25T00:23:39;98211.25;;;20.62;85.30
21633;BME280;48765;51.568;8.840;2022-07-25T00:26:06;98213.53;;;20.70;84.41
21633;BME280;48765;51.568;8.840;2022-07-25T00:28:33;98215.38;;;20.69;84.37
21633;BME280;48765;51.568;8.840;2022-07-25T00:30:59;98206.03;;;20.76;83.91
21633;BME280;48765;51.568;8.840;2022-07-25T00:33:26;98207.38;;;20.85;82.51
21633;BME280;48765;51.568;8.840;2022-07-25T00:35:53;98207.03;;;20.91;82.22
21633;BME280;48765;51.568;8.840;2022-07-25T00:38:20;98203.56;;;20.89;81.85
21633;BME280;48765;51.568;8.840;2022-07-25T00:40:48;98199.44;;;20.99;80.33
21633;BME280;48765;51.568;8.840;2022-07-25T00:43:15;98199.25;;;21.02;80.54
21633;BME280;48765;51.568;8.840;2022-07-25T00:45:42;98187.78;;;20.99;80.85
21633;BME280;48765;51.568;8.840;2022-07-25T00:48:09;98189.91;;;21.09;80.25
21633;BME280;48765;51.568;8.840;2022-07-25T00:50:36;98187.97;;;21.11;80.03
21633;BME280;48765;51.568;8.840;2022-07-25T00:53:03;98184.66;;;21.06;79.24
21633;BME280;48765;51.568;8.840;2022-07-25T00:55:30;98181.25;;;21.20;78.66
21633;BME280;48765;51.568;8.840;2022-07-25T00:57:59;98183.56;;;21.10;78.98
21633;BME280;48765;51.568;8.840;2022-07-25T01:00:26;98182.78;;;21.08;78.94
21633;BME280;48765;51.568;8.840;2022-07-25T01:02:53;98178.78;;;21.15;78.08
21633;BME280;48765;51.568;8.840;2022-07-25T01:05:20;98176.09;;;21.33;76.95
21633;BME280;48765;51.568;8.840;2022-07-25T01:07:47;98172.28;;;21.37;76.36
21633;BME280;48765;51.568;8.840;2022-07-25T01:10:14;98176.72;;;21.21;76.94
21633;BME280;48765;51.568;8.840;2022-07-25T01:12:47;98172.28;;;21.37;76.51
21633;BME280;48765;51.568;8.840;2022-07-25T01:15:16;98176.56;;;21.24;77.22
21633;BME280;48765;51.568;8.840;2022-07-25T01:17:43;98173.25;;;21.18;77.32
21633;BME280;48765;51.568;8.840;2022-07-25T01:20:13;98169.13;;;21.11;78.04
21633;BME280;48765;51.568;8.840;2022-07-25T01:22:40;98165.53;;;20.95;79.63
21633;BME280;48765;51.568;8.840;2022-07-25T01:25:08;98170.34;;;20.88;80.10
21633;BME280;48765;51.568;8.840;2022-07-25T01:27:34;98177.41;;;21.08;79.30
21633;BME280;48765;51.568;8.840;2022-07-25T01:30:02;98177.59;;;21.21;77.03
21633;BME280;48765;51.568;8.840;2022-07-25T01:32:30;98172.44;;;21.16;77.34
21633;BME280;48765;51.568;8.840;2022-07-25T01:35:14;98164.53;;;21.13;77.07
21633;BME280;48765;51.568;8.840;2022-07-25T01:37:41;98163.69;;;21.29;76.52
21633;BME280;48765;51.568;8.840;2022-07-25T01:40:08;98160.53;;;21.38;75.20
21633;BME280;48765;51.568;8.840;2022-07-25T01:42:35;98160.03;;;21.30;74.96
21633;BME280;48765;51.568;8.840;2022-07-25T01:45:03;98146.19;;;21.37;74.67
21633;BME280;48765;51.568;8.840;2022-07-25T01:47:30;98149.34;;;21.46;74.08
21633;BME280;48765;51.568;8.840;2022-07-25T01:49:57;98150.34;;;21.43;73.84
21633;BME280;48765;51.568;8.840;2022-07-25T01:52:25;98140.69;;;21.39;73.59
21633;BME280;48765;51.568;8.840;2022-07-25T01:54:52;98137.66;;;21.45;73.56
21633;BME280;48765;51.568;8.840;2022-07-25T01:57:19;98135.47;;;21.36;74.05
21633;BME280;48765;51.568;8.840;2022-07-25T01:59:46;98126.97;;;21.43;73.70
21633;BME280;48765;51.568;8.840;2022-07-25T02:02:13;98132.53;;;21.56;72.43
21633;BME280;48765;51.568;8.840;2022-07-25T02:04:40;98122.38;;;21.46;73.06
21633;BME280;48765;51.568;8.840;2022-07-25T02:07:07;98123.22;;;21.46;73.22
21633;BME280;48765;51.568;8.840;2022-07-25T02:09:35;98126.03;;;21.60;72.01
21633;BME280;48765;51.568;8.840;2022-07-25T02:12:02;98128.44;;;21.49;72.49
21633;BME280;48765;51.568;8.840;2022-07-25T02:14:31;98126.19;;;21.41;73.31
21633;BME280;48765;51.568;8.840;2022-07-25T02:16:58;98127.22;;;21.39;73.49
21633;BME280;48765;51.568;8.840;2022-07-25T02:19:25;98120.84;;;21.40;73.44
21633;BME280;48765;51.568;8.840;2022-07-25T02:21:52;98121.22;;;21.34;74.18
21633;BME280;48765;51.568;8.840;2022-07-25T02:24:19;98110.66;;;21.29;74.60
21633;BME280;48765;51.568;8.840;2022-07-25T02:26:47;98108.91;;;21.28;75.02
21633;BME280;48765;51.568;8.840;2022-07-25T02:29:14;98117.09;;;21.27;74.98
21633;BME280;48765;51.568;8.840;2022-07-25T02:31:41;98099.13;;;21.43;73.57
21633;BME280;48765;51.568;8.840;2022-07-25T02:34:08;98106.00;;;21.49;72.64
21633;BME280;48765;51.568;8.840;2022-07-25T02:36:35;98095.41;;;21.46;73.40
21633;BME280;48765;51.568;8.840;2022-07-25T02:39:02;98089.81;;;21.33;73.71
21633;BME280;48765;51.568;8.840;2022-07-25T02:41:29;98083.38;;;21.35;74.36
21633;BME280;48765;51.568;8.840;2022-07-25T02:43:58;98086.31;;;21.31;74.17
21633;BME280;48765;51.568;8.840;2022-07-25T02:46:25;98090.59;;;21.35;74.39
21633;BME280;48765;51.568;8.840;2022-07-25T02:48:52;98079.56;;;21.39;74.06
21633;BME280;48765;51.568;8.840;2022-07-25T02:51:19;98090.47;;;21.21;75.27
21633;BME280;48765;51.568;8.840;2022-07-25T02:53:45;98080.59;;;21.37;74.57
21633;BME280;48765;51.568;8.840;2022-07-25T02:56:12;98076.91;;;21.22;75.17
21633;BME280;48765;51.568;8.840;2022-07-25T02:58:39;98075.38;;;21.34;74.68
21633;BME280;48765;51.568;8.840;2022-07-25T03:01:08;98076.72;;;21.25;75.03
21633;BME280;48765;51.568;8.840;2022-07-25T03:03:35;98082.06;;;21.27;75.45
21633;BME280;48765;51.568;8.840;2022-07-25T03:06:02;98081.16;;;21.26;75.33
21633;BME280;48765;51.568;8.840;2022-07-25T03:08:29;98076.03;;;21.22;75.32
21633;BME280;48765;51.568;8.840;2022-07-25T03:10:56;98085.00;;;21.22;75.64
21633;BME280;48765;51.568;8.840;2022-07-25T03:13:23;98073.78;;;21.30;74.63
21633;BME280;48765;51.568;8.840;2022-07-25T03:15:50;98085.41;;;21.14;75.66
21633;BME280;48765;51.568;8.840;2022-07-25T03:18:18;98082.72;;;21.14;76.40
21633;BME280;48765;51.568;8.840;2022-07-25T03:20:45;98084.19;;;21.20;75.72
21633;BME280;48765;51.568;8.840;2022-07-25T03:23:12;98077.94;;;21.19;75.79
21633;BME280;48765;51.568;8.840;2022-07-25T03:25:39;98082.09;;;21.09;76.56
21633;BME280;48765;51.568;8.840;2022-07-25T03:28:05;98070.13;;;21.15;76.37
21633;BME280;48765;51.568;8.840;2022-07-25T03:30:32;98076.72;;;21.25;76.06
21633;BME280;48765;51.568;8.840;2022-07-25T03:33:00;98069.44;;;21.27;75.63
21633;BME280;48765;51.568;8.840;2022-07-25T03:35:28;98070.03;;;21.16;76.75
21633;BME280;48765;51.568;8.840;2022-07-25T03:37:55;98076.16;;;20.87;78.61
21633;BME280;48765;51.568;8.840;2022-07-25T03:40:23;98074.63;;;20.65;80.39
21633;BME280;48765;51.568;8.840;2022-07-25T03:42:49;98073.19;;;20.41;82.97
21633;BME280;48765;51.568;8.840;2022-07-25T03:45:16;98067.50;;;20.12;85.34
21633;BME280;48765;51.568;8.840;2022-07-25T03:47:43;98064.16;;;19.90;87.79
21633;BME280;48765;51.568;8.840;2022-07-25T03:50:10;98055.31;;;19.33;93.74
21633;BME280;48765;51.568;8.840;2022-07-25T03:52:39;98058.81;;;19.35;93.29
21633;BME280;48765;51.568;8.840;2022-07-25T03:55:06;98053.72;;;19.29;95.40
21633;BME280;48765;51.568;8.840;2022-07-25T03:57:34;98059.19;;;19.08;97.51
21633;BME280;48765;51.568;8.840;2022-07-25T04:00:01;98059.31;;;19.05;100.00
21633;BME280;48765;51.568;8.840;2022-07-25T04:02:28;98059.81;;;18.76;100.00
21633;BME280;48765;51.568;8.840;2022-07-25T04:04:55;98057.22;;;18.93;100.00
21633;BME280;48765;51.568;8.840;2022-07-25T04:07:22;98044.72;;;18.73;100.00
21633;BME280;48765;51.568;8.840;2022-07-25T04:09:50;98041.97;;;18.54;100.00
21633;BME280;48765;51.568;8.840;2022-07-25T04:12:17;98044.16;;;18.26;100.00
21633;BME280;48765;51.568;8.840;2022-07-25T04:14:44;98035.75;;;18.33;100.00
21633;BME280;48765;51.568;8.840;2022-07-25T04:17:11;98032.06;;;18.16;100.00
21633;BME280;48765;51.568;8.840;2022-07-25T04:19:38;98040.25;;;18.33;100.00
21633;BME280;48765;51.568;8.840;2022-07-25T04:22:05;98021.72;;;18.47;100.00
21633;BME280;48765;51.568;8.840;2022-07-25T04:24:32;98016.03;;;18.34;100.00
21633;BME280;48765;51.568;8.840;2022-07-25T04:27:00;98013.31;;;17.95;100.00
21633;BME280;48765;51.568;8.840;2022-07-25T04:29:27;98008.34;;;18.27;100.00
21633;BME280;48765;51.568;8.840;2022-07-25T04:31:54;98007.22;;;18.51;100.00
21633;BME280;48765;51.568;8.840;2022-07-25T04:34:22;97996.63;;;18.48;100.00
21633;BME280;48765;51.568;8.840;2022-07-25T04:36:49;97999.91;;;18.34;100.00
21633;BME280;48765;51.568;8.840;2022-07-25T04:39:16;97989.81;;;18.41;100.00
21633;BME280;48765;51.568;8.840;2022-07-25T04:41:43;97988.78;;;18.62;100.00
21633;BME280;48765;51.568;8.840;2022-07-25T04:44:11;97983.75;;;18.75;100.00
21633;BME280;48765;51.568;8.840;2022-07-25T04:46:39;97981.38;;;18.88;100.00
21633;BME280;48765;51.568;8.840;2022-07-25T04:49:06;97985.94;;;18.86;100.00
21633;BME280;48765;51.568;8.840;2022-07-25T04:51:32;97977.50;;;19.12;100.00
21633;BME280;48765;51.568;8.840;2022-07-25T04:54:00;97990.34;;;19.42;100.00
21633;BME280;48765;51.568;8.840;2022-07-25T04:56:27;97976.66;;;19.65;100.00
21633;BME280;48765;51.568;8.840;2022-07-25T04:58:54;97970.03;;;19.73;100.00
21633;BME280;48765;51.568;8.840;2022-07-25T05:01:22;97966.97;;;20.13;99.94
21633;BME280;48765;51.568;8.840;2022-07-25T05:03:49;97972.22;;;20.16;100.00
21633;BME280;48765;51.568;8.840;2022-07-25T05:06:18;97965.59;;;20.73;95.52
21633;BME280;48765;51.568;8.840;2022-07-25T05:08:45;97960.22;;;20.73;95.60
21633;BME280;48765;51.568;8.840;2022-07-25T05:11:12;97959.53;;;20.85;93.28
21633;BME280;48765;51.568;8.840;2022-07-25T05:13:39;97956.75;;;21.02;93.08
21633;BME280;48765;51.568;8.840;2022-07-25T05:16:07;97960.91;;;21.24;92.04
21633;BME280;48765;51.568;8.840;2022-07-25T05:18:35;97951.69;;;21.43;86.74
21633;BME280;48765;51.568;8.840;2022-07-25T05:21:02;97945.31;;;21.60;85.80
21633;BME280;48765;51.568;8.840;2022-07-25T05:23:29;97951.22;;;21.67;85.10
21633;BME280;48765;51.568;8.840;2022-07-25T05:25:56;97952.38;;;21.77;85.74
21633;BME280;48765;51.568;8.840;2022-07-25T05:28:23;97953.97;;;21.95;82.64
21633;BME280;48765;51.568;8.840;2022-07-25T05:30:50;97945.66;;;22.14;80.93
21633;BME280;48765;51.568;8.840;2022-07-25T05:33:18;97947.41;;;22.30;78.92
21633;BME280;48765;51.568;8.840;2022-07-25T05:35:46;97945.88;;;22.40;78.15
21633;BME280;48765;51.568;8.840;2022-07-25T05:38:13;97941.41;;;22.53;77.44
21633;BME280;48765;51.568;8.840;2022-07-25T05:40:40;97938.72;;;22.67;74.81
21633;BME280;48765;51.568;8.840;2022-07-25T05:43:08;97937.38;;;22.75;75.04
21633;BME280;48765;51.568;8.840;2022-07-25T05:45:35;97937.19;;;22.78;75.57
21633;BME280;48765;51.568;8.840;2022-07-25T05:48:02;97940.22;;;22.86;75.46
21633;BME280;48765;51.568;8.840;2022-07-25T05:50:28;97929.59;;;23.11;73.60
21633;BME280;48765;51.568;8.840;2022-07-25T05:52:58;97937.91;;;23.08;74.16
21633;BME280;48765;51.568;8.840;2022-07-25T05:55:25;97928.25;;;23.04;74.49
21633;BME280;48765;51.568;8.840;2022-07-25T05:57:52;97933.44;;;23.21;73.21
21633;BME280;48765;51.568;8.840;2022-07-25T06:00:19;97939.66;;;23.36;73.85
21633;BME280;48765;51.568;8.840;2022-07-25T06:02:46;97933.19;;;23.39;73.33
21633;BME280;48765;51.568;8.840;2022-07-25T06:05:13;97926.94;;;23.51;74.06
21633;BME280;48765;51.568;8.840;2022-07-25T06:07:40;97928.66;;;23.52;74.38
21633;BME280;48765;51.568;8.840;2022-07-25T06:10:08;97927.03;;;23.50;74.23
21633;BME280;48765;51.568;8.840;2022-07-25T06:12:36;97927.94;;;23.63;73.92
21633;BME280;48765;51.568;8.840;2022-07-25T06:15:03;97930.06;;;23.72;75.17
21633;BME280;48765;51.568;8.840;2022-07-25T06:17:30;97923.47;;;23.76;73.95
21633;BME280;48765;51.568;8.840;2022-07-25T06:19:57;97918.81;;;23.78;73.27
21633;BME280;48765;51.568;8.840;2022-07-25T06:22:24;97911.25;;;23.96;73.59
21633;BME280;48765;51.568;8.840;2022-07-25T06:24:51;97914.06;;;24.07;73.37
21633;BME280;48765;51.568;8.840;2022-07-25T06:27:20;97904.22;;;24.06;71.88
21633;BME280;48765;51.568;8.840;2022-07-25T06:29:46;97902.28;;;24.21;72.74
21633;BME280;48765;51.568;8.840;2022-07-25T06:32:14;97905.19;;;24.31;72.81
21633;BME280;48765;51.568;8.840;2022-07-25T06:34:41;97909.09;;;24.27;73.40
21633;BME280;48765;51.568;8.840;2022-07-25T06:37:08;97907.91;;;24.31;72.01
21633;BME280;48765;51.568;8.840;2022-07-25T06:39:35;97900.47;;;24.47;72.16
21633;BME280;48765;51.568;8.840;2022-07-25T06:42:02;97896.31;;;24.54;71.93
21633;BME280;48765;51.568;8.840;2022-07-25T06:44:32;97903.97;;;24.60;71.84
21633;BME280;48765;51.568;8.840;2022-07-25T06:46:59;97905.75;;;24.61;72.25
21633;BME280;48765;51.568;8.840;2022-07-25T06:49:26;97896.69;;;24.73;72.96
21633;BME280;48765;51.568;8.840;2022-07-25T06:51:53;97894.09;;;24.85;71.90
21633;BME280;48765;51.568;8.840;2022-07-25T06:54:20;97894.28;;;24.94;70.62
21633;BME280;48765;51.568;8.840;2022-07-25T06:56:47;97896.25;;;25.16;70.06
21633;BME280;48765;51.568;8.840;2022-07-25T06:59:13;97892.34;;;25.20;71.20
21633;BME280;48765;51.568;8.840;2022-07-25T07:01:42;97887.22;;;25.29;70.54
21633;BME280;48765;51.568;8.840;2022-07-25T07:04:09;97878.25;;;25.39;69.56
21633;BME280;48765;51.568;8.840;2022-07-25T07:06:36;97877.81;;;25.45;69.43
21633;BME280;48765;51.568;8.840;2022-07-25T07:09:04;97883.91;;;25.60;68.59
21633;BME280;48765;51.568;8.840;2022-07-25T07:11:31;97882.06;;;25.61;68.56
21633;BME280;48765;51.568;8.840;2022-07-25T07:13:58;97877.63;;;25.71;68.07
21633;BME280;48765;51.568;8.840;2022-07-25T07:16:27;97869.94;;;25.89;66.50
21633;BME280;48765;51.568;8.840;2022-07-25T07:18:56;97871.44;;;26.04;66.85
21633;BME280;48765;51.568;8.840;2022-07-25T07:21:23;97866.75;;;26.06;65.58
21633;BME280;48765;51.568;8.840;2022-07-25T07:23:50;97877.03;;;26.14;65.79
21633;BME280;48765;51.568;8.840;2022-07-25T07:26:17;97866.69;;;26.30;65.74
21633;BME280;48765;51.568;8.840;2022-07-25T07:28:44;97866.53;;;26.32;66.05
21633;BME280;48765;51.568;8.840;2022-07-25T07:31:11;97862.84;;;26.33;66.11
21633;BME280;48765;51.568;8.840;2022-07-25T07:33:37;97855.69;;;26.32;66.70
21633;BME280;48765;51.568;8.840;2022-07-25T07:36:06;97867.53;;;26.42;68.76
21633;BME280;48765;51.568;8.840;2022-07-25T07:38:33;97853.69;;;26.34;69.96
21633;BME280;48765;51.568;8.840;2022-07-25T07:41:00;97859.88;;;26.36;70.45
21633;BME280;48765;51.568;8.840;2022-07-25T07:43:27;97855.69;;;26.65;70.76
21633;BME280;48765;51.568;8.840;2022-07-25T07:45:56;97855.34;;;26.59;69.98
21633;BME280;48765;51.568;8.840;2022-07-25T07:48:24;97847.31;;;26.46;68.46
21633;BME280;48765;51.568;8.840;2022-07-25T07:50:51;97843.69;;;26.34;69.24
21633;BME280;48765;51.568;8.840;2022-07-25T07:53:20;97840.59;;;26.39;68.66
21633;BME280;48765;51.568;8.840;2022-07-25T07:55:47;97846.53;;;26.44;68.80
21633;BME280;48765;51.568;8.840;2022-07-25T07:58:15;97839.88;;;26.59;69.90
21633;BME280;48765;51.568;8.840;2022-07-25T08:00:42;97849.47;;;26.86;70.19
21633;BME280;48765;51.568;8.840;2022-07-25T08:03:09;97836.63;;;26.76;70.55
21633;BME280;48765;51.568;8.840;2022-07-25T08:05:36;97838.91;;;26.49;71.91
21633;BME280;48765;51.568;8.840;2022-07-25T08:08:04;97831.00;;;26.46;71.00
21633;BME280;48765;51.568;8.840;2022-07-25T08:10:33;97826.66;;;26.66;73.95
21633;BME280;48765;51.568;8.840;2022-07-25T08:13:01;97831.31;;;26.75;72.01
21633;BME280;48765;51.568;8.840;2022-07-25T08:15:28;97818.06;;;26.93;69.52
21633;BME280;48765;51.568;8.840;2022-07-25T08:17:55;97820.88;;;27.14;69.48
21633;BME280;48765;51.568;8.840;2022-07-25T08:20:22;97822.94;;;27.21;70.47
21633;BME280;48765;51.568;8.840;2022-07-25T08:22:49;97813.16;;;27.51;70.59
21633;BME280;48765;51.568;8.840;2022-07-25T08:25:17;97820.06;;;27.55;71.10
21633;BME280;48765;51.568;8.840;2022-07-25T08:27:46;97815.69;;;27.85;71.84
21633;BME280;48765;51.568;8.840;2022-07-25T08:30:14;97806.38;;;28.08;65.71
21633;BME280;48765;51.568;8.840;2022-07-25T08:32:48;97807.03;;;28.52;61.85
21633;BME280;48765;51.568;8.840;2022-07-25T08:35:15;97802.84;;;28.98;55.58
21633;BME280;48765;51.568;8.840;2022-07-25T08:37:42;97808.13;;;28.90;58.22
21633;BME280;48765;51.568;8.840;2022-07-25T08:40:10;97810.81;;;28.70;59.27
21633;BME280;48765;51.568;8.840;2022-07-25T08:42:37;97802.78;;;28.78;54.90
21633;BME280;48765;51.568;8.840;2022-07-25T08:45:07;97802.69;;;28.90;52.95
21633;BME280;48765;51.568;8.840;2022-07-25T08:47:34;97793.22;;;28.94;50.74
21633;BME280;48765;51.568;8.840;2022-07-25T08:50:02;97799.84;;;29.01;50.88
21633;BME280;48765;51.568;8.840;2022-07-25T08:52:29;97800.94;;;28.89;52.89
21633;BME280;48765;51.568;8.840;2022-07-25T08:54:59;97802.88;;;29.17;52.91
21633;BME280;48765;51.568;8.840;2022-07-25T08:57:26;97796.13;;;29.21;50.49
21633;BME280;48765;51.568;8.840;2022-07-25T08:59:55;97797.56;;;29.35;50.47
21633;BME280;48765;51.568;8.840;2022-07-25T09:02:24;97796.25;;;29.39;50.04
21633;BME280;48765;51.568;8.840;2022-07-25T09:04:51;97802.72;;;29.48;49.77
21633;BME280;48765;51.568;8.840;2022-07-25T09:07:27;97804.88;;;29.54;49.90
21633;BME280;48765;51.568;8.840;2022-07-25T09:09:54;97798.16;;;29.58;50.14
21633;BME280;48765;51.568;8.840;2022-07-25T09:12:24;97792.50;;;29.50;49.59
21633;BME280;48765;51.568;8.840;2022-07-25T09:14:51;97791.09;;;29.46;49.95
21633;BME280;48765;51.568;8.840;2022-07-25T09:17:18;97783.34;;;29.51;49.61
21633;BME280;48765;51.568;8.840;2022-07-25T09:19:51;97787.34;;;29.47;50.68
21633;BME280;48765;51.568;8.840;2022-07-25T09:22:19;97791.81;;;29.48;51.00
21633;BME280;48765;51.568;8.840;2022-07-25T09:24:46;97798.72;;;29.62;52.55
21633;BME280;48765;51.568;8.840;2022-07-25T09:27:13;97791.22;;;29.54;50.21
21633;BME280;48765;51.568;8.840;2022-07-25T09:29:41;97788.38;;;29.65;50.77
21633;BME280;48765;51.568;8.840;2022-07-25T09:32:13;97783.03;;;29.64;49.38
21633;BME280;48765;51.568;8.840;2022-07-25T09:34:41;97774.50;;;29.96;49.21
21633;BME280;48765;51.568;8.840;2022-07-25T09:37:10;97781.44;;;29.81;51.30
21633;BME280;48765;51.568;8.840;2022-07-25T09:39:38;97785.41;;;29.96;53.55
21633;BME280;48765;51.568;8.840;2022-07-25T09:42:18;97787.16;;;29.87;53.63
21633;BME280;48765;51.568;8.840;2022-07-25T09:44:56;97787.41;;;30.13;51.86
21633;BME280;48765;51.568;8.840;2022-07-25T09:47:23;97781.41;;;30.37;49.51
21633;BME280;48765;51.568;8.840;2022-07-25T09:49:50;97779.63;;;30.18;49.04
21633;BME280;48765;51.568;8.840;2022-07-25T09:52:18;97782.16;;;30.57;48.78
21633;BME280;48765;51.568;8.840;2022-07-25T09:54:45;97776.81;;;30.38;46.67
21633;BME280;48765;51.568;8.840;2022-07-25T09:57:12;97781.19;;;30.11;48.30
21633;BME280;48765;51.568;8.840;2022-07-25T09:59:39;97790.19;;;29.94;48.55
21633;BME280;48765;51.568;8.840;2022-07-25T10:02:07;97790.66;;;29.79;48.02
21633;BME280;48765;51.568;8.840;2022-07-25T10:04:43;97786.63;;;29.84;49.41
21633;BME280;48765;51.568;8.840;2022-07-25T10:07:11;97791.34;;;29.82;49.30
21633;BME280;48765;51.568;8.840;2022-07-25T10:09:42;97791.09;;;29.75;49.56
21633;BME280;48765;51.568;8.840;2022-07-25T10:12:09;97782.13;;;29.92;49.92
21633;BME280;48765;51.568;8.840;2022-07-25T10:14:37;97785.16;;;29.89;50.68
21633;BME280;48765;51.568;8.840;2022-07-25T10:17:04;97785.75;;;29.83;51.24
21633;BME280;48765;51.568;8.840;2022-07-25T10:19:35;97783.75;;;29.75;53.41
21633;BME280;48765;51.568;8.840;2022-07-25T10:22:05;97790.91;;;29.86;53.32
21633;BME280;48765;51.568;8.840;2022-07-25T10:24:32;97772.22;;;29.82;51.76
21633;BME280;48765;51.568;8.840;2022-07-25T10:27:04;97771.63;;;29.88;51.35
21633;BME280;48765;51.568;8.840;2022-07-25T10:29:33;97775.78;;;29.92;51.99
21633;BME280;48765;51.568;8.840;2022-07-25T10:32:04;97772.66;;;29.87;51.81
21633;BME280;48765;51.568;8.840;2022-07-25T10:34:31;97773.06;;;29.92;50.86
21633;BME280;48765;51.568;8.840;2022-07-25T10:37:07;97767.91;;;29.89;52.00
21633;BME280;48765;51.568;8.840;2022-07-25T10:39:36;97765.28;;;30.16;49.68
21633;BME280;48765;51.568;8.840;2022-07-25T10:42:05;97763.00;;;30.02;50.30
21633;BME280;48765;51.568;8.840;2022-07-25T10:44:38;97762.25;;;30.00;48.88
21633;BME280;48765;51.568;8.840;2022-07-25T10:47:07;97772.50;;;29.98;50.88
21633;BME280;48765;51.568;8.840;2022-07-25T10:49:34;97759.47;;;30.19;49.22
21633;BME280;48765;51.568;8.840;2022-07-25T10:52:02;97770.44;;;30.47;49.74
21633;BME280;48765;51.568;8.840;2022-07-25T10:54:33;97765.88;;;30.38;49.11
21633;BME280;48765;51.568;8.840;2022-07-25T10:57:00;97751.91;;;30.41;48.98
21633;BME280;48765;51.568;8.840;2022-07-25T10:59:32;97751.00;;;30.50;50.54
21633;BME280;48765;51.568;8.840;2022-07-25T11:02:00;97750.09;;;30.59;49.68
21633;BME280;48765;51.568;8.840;2022-07-25T11:04:27;97752.00;;;30.21;48.22
21633;BME280;48765;51.568;8.840;2022-07-25T11:06:54;97754.06;;;30.00;49.27
21633;BME280;48765;51.568;8.840;2022-07-25T11:09:22;97747.50;;;29.93;49.12
21633;BME280;48765;51.568;8.840;2022-07-25T11:11:50;97752.31;;;30.09;50.37
21633;BME280;48765;51.568;8.840;2022-07-25T11:14:18;97758.78;;;30.17;49.69
21633;BME280;48765;51.568;8.840;2022-07-25T11:16:51;97748.63;;;29.90;50.02
21633;BME280;48765;51.568;8.840;2022-07-25T11:19:21;97751.28;;;30.10;50.34
21633;BME280;48765;51.568;8.840;2022-07-25T11:21:49;97743.34;;;30.26;48.81
21633;BME280;48765;51.568;8.840;2022-07-25T11:24:16;97744.00;;;30.38;49.04
21633;BME280;48765;51.568;8.840;2022-07-25T11:26:43;97739.91;;;30.51;47.52
21633;BME280;48765;51.568;8.840;2022-07-25T11:29:16;97736.06;;;30.44;48.71
21633;BME280;48765;51.568;8.840;2022-07-25T11:31:51;97733.88;;;30.75;48.19
21633;BME280;48765;51.568;8.840;2022-07-25T11:34:18;97732.03;;;30.66;48.32
21633;BME280;48765;51.568;8.840;2022-07-25T11:36:47;97748.34;;;30.58;48.50
21633;BME280;48765;51.568;8.840;2022-07-25T11:39:14;97748.88;;;30.71;48.77
21633;BME280;48765;51.568;8.840;2022-07-25T11:41:41;97749.81;;;30.52;50.48
21633;BME280;48765;51.568;8.840;2022-07-25T11:44:08;97742.88;;;30.58;51.70
21633;BME280;48765;51.568;8.840;2022-07-25T11:46:40;97747.19;;;30.33;49.13
21633;BME280;48765;51.568;8.840;2022-07-25T11:49:08;97744.72;;;30.40;48.66
21633;BME280;48765;51.568;8.840;2022-07-25T11:51:35;97750.00;;;30.14;48.73
21633;BME280;48765;51.568;8.840;2022-07-25T11:54:06;97753.88;;;30.11;49.67
21633;BME280;48765;51.568;8.840;2022-07-25T11:56:36;97750.25;;;30.20;48.27
21633;BME280;48765;51.568;8.840;2022-07-25T11:59:03;97740.75;;;30.24;49.28
21633;BME280;48765;51.568;8.840;2022-07-25T12:01:33;97745.66;;;30.11;50.43
21633;BME280;48765;51.568;8.840;2022-07-25T12:04:08;97747.41;;;30.12;50.70
21633;BME280;48765;51.568;8.840;2022-07-25T12:06:35;97746.06;;;29.89;52.28
21633;BME280;48765;51.568;8.840;2022-07-25T12:09:08;97741.19;;;29.73;51.90
21633;BME280;48765;51.568;8.840;2022-07-25T12:11:35;97737.19;;;29.67;51.68
21633;BME280;48765;51.568;8.840;2022-07-25T12:14:02;97745.81;;;29.63;52.71
21633;BME280;48765;51.568;8.840;2022-07-25T12:16:29;97752.91;;;29.56;54.15
21633;BME280;48765;51.568;8.840;2022-07-25T12:18:56;97759.34;;;29.25;54.50
21633;BME280;48765;51.568;8.840;2022-07-25T12:21:25;97756.03;;;29.12;54.16
21633;BME280;48765;51.568;8.840;2022-07-25T12:23:52;97759.94;;;29.10;55.03
21633;BME280;48765;51.568;8.840;2022-07-25T12:26:20;97778.13;;;28.90;56.82
21633;BME280;48765;51.568;8.840;2022-07-25T12:28:47;97781.75;;;28.50;61.97
21633;BME280;48765;51.568;8.840;2022-07-25T12:31:14;97776.88;;;28.44;64.59
21633;BME280;48765;51.568;8.840;2022-07-25T12:33:41;97770.25;;;28.37;67.42
21633;BME280;48765;51.568;8.840;2022-07-25T12:36:10;97759.25;;;28.48;66.22
21633;BME280;48765;51.568;8.840;2022-07-25T12:38:39;97768.50;;;28.76;70.07
21633;BME280;48765;51.568;8.840;2022-07-25T12:41:06;97770.84;;;28.50;67.65
21633;BME280;48765;51.568;8.840;2022-07-25T12:43:33;97765.66;;;29.16;68.72
21633;BME280;48765;51.568;8.840;2022-07-25T12:46:00;97760.50;;;29.23;63.96
21633;BME280;48765;51.568;8.840;2022-07-25T12:48:27;97753.19;;;29.23;61.64
21633;BME280;48765;51.568;8.840;2022-07-25T12:50:54;97749.03;;;29.10;60.62
21633;BME280;48765;51.568;8.840;2022-07-25T12:53:20;97763.78;;;29.17;58.43
21633;BME280;48765;51.568;8.840;2022-07-25T12:55:50;97770.25;;;29.45;62.42
21633;BME280;48765;51.568;8.840;2022-07-25T12:58:17;97765.66;;;29.16;61.48
21633;BME280;48765;51.568;8.840;2022-07-25T13:00:45;97764.22;;;29.12;60.41
21633;BME280;48765;51.568;8.840;2022-07-25T13:03:13;97769.41;;;28.96;60.16